Airfield :
LOGIN :

Register | Disclaimer

   EN    FR    IT 

 










Legend :    VFR   Marginal VFR   IFR   Intensive IFR   Very Intensive IFR
Visi :
Ceiling :
>= 8 km
>= 3000ft
5 to 8 km
1000 to 3000 ft
1500m to 5 km
500 to 1000 ft
800 to 1500m
200 to 500 ft
< 800m
< 200 ft
Symbols :   Thunderstorms  Fog  Heavy snow  Heavy precipitations  Wind > 20 kt
SIGMETs :     Misc.  Thunderstorms  Icing  Turbulence  Mountain Waves  Volcanic Ashes






- Airport Elevation : 100 ft


EBDT - Schaffen

CURRENT METAR :
  • 210455Z AUTO 30003KT 4300 BR SCT080/// BKN095/// OVC110/// 06/04 Q1016 GRN

EXPIRED METARs :
  • 210425Z AUTO 31003KT 4300 BR SCT080/// BKN110/// BKN160/// 06/05 Q1016 GRN
  • 210420Z AUTO 32003KT 3400 BR SCT080/// BKN120/// BKN220/// 06/04 Q1016 YLO
  • 210355Z AUTO 35005KT 4500 BR FEW100/// BKN130/// BKN220/// 07/05 Q1016 GRN
  • 210325Z AUTO 34004KT 4700 BR FEW100/// BKN110/// BKN140/// 07/05 Q1016 GRN
  • 210255Z AUTO 34004KT 4800 BR FEW065/// BKN110/// BKN130/// 08/05 Q1016 GRN
  • 210243Z AUTO 33005KT 4200 BR FEW090/// BKN100/// OVC120/// 07/05 Q1016 GRN
  • 210225Z AUTO 33005KT 3600 BR FEW090/// BKN110/// BKN220/// 06/04 Q1016 YLO

TAF TAF EBDT
Valid from the 20 at 19:00 until the 21 at 07:00 UTC


201541Z 2019/2107 35004KT 9999 SCT050 SCT070
BECMG 2023/2101 VRB03KT 4000 BR
BECMG 2101/2103 0200 FG BKN001



MET'MAP, your aeronautical weather chart ! - Copyright ORBIFLY December 2007 - Disclaimer

ORBIFLY MET'MAP TEAM :

Programming & Development : Alexandra Zaïnal
Concept & original design : Baudouin d'Aumeries
Assistance for programming : Marc-Olivier Méhu
Technical & hardware support : Manuel Goepfert

Contact : metmap@orbifly.com




SOURCES & CREDITS :

   NOAA